createdAt,value
2022-08-03T00:03:15.617Z,15.43
2022-08-03T00:06:36.997Z,15.25
2022-08-03T00:09:53.002Z,14.45
2022-08-03T00:13:12.656Z,15.78
2022-08-03T00:16:30.105Z,15.25
2022-08-03T00:19:46.048Z,16.00
2022-08-03T00:23:02.341Z,15.88
2022-08-03T00:26:20.732Z,17.08
2022-08-03T00:29:59.582Z,15.55
2022-08-03T00:32:54.845Z,16.10
2022-08-03T00:36:11.359Z,16.60
2022-08-03T00:39:27.373Z,16.50
2022-08-03T00:42:54.539Z,15.80
2022-08-03T00:46:10.647Z,16.93
2022-08-03T00:49:27.074Z,15.95
2022-08-03T00:52:44.626Z,16.53
2022-08-03T00:56:01.215Z,15.95
2022-08-03T00:59:17.442Z,15.43
2022-08-03T01:02:34.007Z,16.20
2022-08-03T01:05:58.542Z,16.48
2022-08-03T01:09:21.310Z,15.75
2022-08-03T01:12:44.112Z,14.90
2022-08-03T01:16:08.361Z,16.58
2022-08-03T01:19:40.614Z,16.85
2022-08-03T01:23:16.666Z,16.45
2022-08-03T01:26:51.861Z,16.15
2022-08-03T01:30:21.081Z,16.83
2022-08-03T01:33:41.051Z,16.88
2022-08-03T01:37:01.306Z,15.25
2022-08-03T01:40:23.455Z,17.03
2022-08-03T01:44:03.053Z,15.60
2022-08-03T01:46:59.973Z,16.03
2022-08-03T01:50:18.862Z,15.30
2022-08-03T01:53:36.436Z,16.45
2022-08-03T01:56:54.247Z,17.05
2022-08-03T02:00:16.262Z,16.08
2022-08-03T02:03:34.192Z,16.28
2022-08-03T02:07:02.355Z,16.15
2022-08-03T02:10:14.076Z,16.48
2022-08-03T02:13:32.341Z,15.78
2022-08-03T02:16:48.537Z,16.53
2022-08-03T02:20:08.064Z,17.13
2022-08-03T02:23:25.273Z,14.35
2022-08-03T02:26:44.570Z,16.08
2022-08-03T02:30:04.755Z,16.25
2022-08-03T02:33:25.694Z,17.03
2022-08-03T02:36:46.977Z,16.18
2022-08-03T02:40:08.277Z,16.33
2022-08-03T02:43:28.164Z,16.80
2022-08-03T02:46:50.667Z,16.78
2022-08-03T02:50:12.639Z,16.80
2022-08-03T02:53:31.407Z,16.33
2022-08-03T02:56:49.095Z,16.13
2022-08-03T03:00:06.303Z,16.15
2022-08-03T03:03:23.380Z,16.40
2022-08-03T03:06:42.855Z,17.33
2022-08-03T03:10:01.577Z,16.88
2022-08-03T03:13:18.816Z,17.05
2022-08-03T03:16:36.895Z,15.63
2022-08-03T03:19:55.087Z,17.63
2022-08-03T03:23:13.036Z,17.13
2022-08-03T03:26:30.613Z,17.43
2022-08-03T03:29:46.851Z,17.23
2022-08-03T03:33:03.514Z,16.75
2022-08-03T03:36:20.129Z,17.35
2022-08-03T03:39:37.275Z,17.13
2022-08-03T03:42:53.615Z,16.50
2022-08-03T03:46:10.631Z,16.60
2022-08-03T03:49:27.078Z,15.98
2022-08-03T03:52:44.643Z,16.15
2022-08-03T03:56:03.206Z,16.13
2022-08-03T03:59:21.008Z,16.68
2022-08-03T04:02:37.446Z,17.38
2022-08-03T04:06:08.311Z,16.80
2022-08-03T04:09:38.309Z,18.30
2022-08-03T04:12:57.333Z,17.80
2022-08-03T04:19:34.482Z,18.53
2022-08-03T04:22:51.177Z,18.35
2022-08-03T04:26:10.490Z,17.80
2022-08-03T04:29:28.682Z,17.13
2022-08-03T04:32:49.018Z,18.43
2022-08-03T04:36:07.194Z,18.73
2022-08-03T04:39:29.723Z,18.15
2022-08-03T04:42:48.343Z,19.08
2022-08-03T04:46:05.860Z,18.88
2022-08-03T04:49:22.666Z,20.03
2022-08-03T04:52:39.433Z,20.85
2022-08-03T04:55:55.726Z,19.35
2022-08-03T04:59:11.922Z,19.60
2022-08-03T05:02:28.228Z,19.20
2022-08-03T05:05:50.558Z,18.60
2022-08-03T05:09:02.304Z,18.58
2022-08-03T05:12:21.197Z,18.63
2022-08-03T05:15:43.160Z,19.08
2022-08-03T05:18:56.250Z,18.10
2022-08-03T05:22:12.567Z,17.18
2022-08-03T05:25:28.759Z,17.30
2022-08-03T05:28:50.871Z,17.10
2022-08-03T05:32:08.439Z,15.25
2022-08-03T05:35:55.666Z,14.50
2022-08-03T05:38:41.602Z,13.63
2022-08-03T05:41:57.702Z,13.38
2022-08-03T05:45:23.186Z,13.00
2022-08-03T05:48:38.695Z,12.83
2022-08-03T05:52:09.046Z,11.75
2022-08-03T05:55:14.629Z,12.30
2022-08-03T05:58:30.666Z,12.53
2022-08-03T06:01:48.840Z,12.13
2022-08-03T06:05:04.963Z,10.78
2022-08-03T06:08:21.558Z,13.50
2022-08-03T06:11:38.307Z,12.30
2022-08-03T06:14:56.420Z,12.45
2022-08-03T06:18:13.160Z,12.53
2022-08-03T06:21:29.387Z,12.30
2022-08-03T06:24:53.443Z,12.45
2022-08-03T06:28:07.625Z,12.88
2022-08-03T06:31:24.661Z,13.45
2022-08-03T06:34:40.863Z,14.30
2022-08-03T06:37:58.571Z,14.30
2022-08-03T06:41:16.632Z,13.13
2022-08-03T06:44:35.874Z,12.93
2022-08-03T06:47:51.975Z,14.03
2022-08-03T06:51:08.260Z,12.40
2022-08-03T06:54:25.262Z,14.03
2022-08-03T06:57:41.354Z,13.98
2022-08-03T07:00:57.706Z,14.25
2022-08-03T07:04:14.131Z,13.83
2022-08-03T07:07:30.324Z,11.95
2022-08-03T07:10:46.438Z,12.13
2022-08-03T07:14:03.013Z,12.13
2022-08-03T07:17:19.159Z,12.28
2022-08-03T07:20:35.499Z,12.13
2022-08-03T07:23:51.990Z,11.43
2022-08-03T07:27:08.599Z,12.25
2022-08-03T07:30:25.845Z,12.40
2022-08-03T07:33:41.880Z,11.58
2022-08-03T07:36:58.841Z,11.33
2022-08-03T07:40:18.490Z,12.90
2022-08-03T07:43:35.746Z,12.35
2022-08-03T07:46:52.296Z,11.20
2022-08-03T07:50:08.894Z,12.10
2022-08-03T07:53:25.141Z,11.25
2022-08-03T07:56:42.715Z,11.78
2022-08-03T08:00:01.790Z,11.90
2022-08-03T08:03:20.707Z,12.33
2022-08-03T08:06:37.072Z,13.40
2022-08-03T08:09:55.014Z,12.03
2022-08-03T08:13:12.140Z,11.20
2022-08-03T08:16:29.829Z,10.45
2022-08-03T08:19:46.728Z,11.20
2022-08-03T08:23:24.836Z,10.20
2022-08-03T08:26:24.102Z,10.93
2022-08-03T08:29:52.623Z,10.78
2022-08-03T08:32:58.496Z,11.03
2022-08-03T08:36:17.894Z,10.03
2022-08-03T08:39:35.083Z,10.40
2022-08-03T08:42:58.344Z,11.03
2022-08-03T08:46:11.885Z,10.63
2022-08-03T08:49:31.987Z,10.48
2022-08-03T08:52:52.806Z,10.00
2022-08-03T08:56:11.184Z,9.08
2022-08-03T09:02:43.305Z,9.90
2022-08-03T09:06:00.487Z,12.10
2022-08-03T09:10:08.200Z,9.80
2022-08-03T09:12:41.572Z,9.88
2022-08-03T09:16:01.297Z,9.35
2022-08-03T09:19:21.419Z,9.98
2022-08-03T09:22:39.577Z,10.30
2022-08-03T09:25:55.767Z,10.03
2022-08-03T09:29:17.196Z,9.65
2022-08-03T09:32:34.752Z,8.78
2022-08-03T09:35:57.845Z,9.60
2022-08-03T09:39:18.771Z,9.45
2022-08-03T09:42:35.994Z,9.03
2022-08-03T09:45:54.281Z,13.85
2022-08-03T09:49:23.423Z,13.70
2022-08-03T09:52:52.033Z,8.83
2022-08-03T09:56:34.685Z,7.75
2022-08-03T09:59:39.136Z,6.33
2022-08-03T10:02:55.038Z,5.98
2022-08-03T10:06:25.481Z,6.30
2022-08-03T10:09:43.252Z,6.10
2022-08-03T10:13:00.431Z,6.28
2022-08-03T10:16:21.866Z,5.58
2022-08-03T10:22:52.776Z,5.40
2022-08-03T10:26:13.223Z,5.53
2022-08-03T10:29:34.224Z,5.50
2022-08-03T10:32:54.111Z,5.80
2022-08-03T10:36:13.585Z,6.65
2022-08-03T10:39:37.494Z,5.90
2022-08-03T10:42:59.405Z,5.35
2022-08-03T10:46:17.853Z,4.83
2022-08-03T10:49:35.689Z,5.43
2022-08-03T10:53:07.448Z,5.43
2022-08-03T10:57:23.033Z,4.45
2022-08-03T11:00:25.051Z,4.63
2022-08-03T11:03:44.071Z,4.95
2022-08-03T11:07:28.076Z,4.73
2022-08-03T11:10:45.719Z,5.43
2022-08-03T11:14:10.543Z,4.93
2022-08-03T11:17:28.843Z,5.93
2022-08-03T11:24:14.587Z,27.23
2022-08-03T11:27:32.762Z,6.53
2022-08-03T11:30:48.977Z,5.85
2022-08-03T11:34:16.228Z,5.18
2022-08-03T11:37:34.266Z,5.28
2022-08-03T11:40:54.240Z,5.40
2022-08-03T11:44:10.829Z,4.70
2022-08-03T11:47:28.949Z,4.83
2022-08-03T11:50:48.236Z,4.55
2022-08-03T11:54:11.606Z,4.50
2022-08-03T11:59:11.044Z,4.70
2022-08-03T12:00:58.860Z,4.63
2022-08-03T12:04:17.047Z,4.90
2022-08-03T12:08:03.905Z,4.15
2022-08-03T12:11:03.803Z,4.90
2022-08-03T12:14:50.375Z,4.60
2022-08-03T12:17:47.354Z,4.48
2022-08-03T12:21:14.209Z,5.63
2022-08-03T12:24:32.577Z,5.38
2022-08-03T12:31:05.054Z,13.28
2022-08-03T12:34:21.674Z,22.45
2022-08-03T12:37:38.105Z,6.88
2022-08-03T12:41:02.283Z,5.38
2022-08-03T12:44:19.341Z,5.00
2022-08-03T12:47:35.510Z,6.38
2022-08-03T12:50:51.885Z,5.15
2022-08-03T12:54:10.557Z,4.98
2022-08-03T12:57:26.777Z,4.90
2022-08-03T13:00:43.155Z,4.85
2022-08-03T13:04:00.274Z,4.40
2022-08-03T13:07:20.648Z,4.85
2022-08-03T13:10:41.628Z,4.93
2022-08-03T13:13:59.111Z,4.60
2022-08-03T13:17:17.658Z,4.93
2022-08-03T13:20:34.580Z,4.70
2022-08-03T13:23:51.681Z,4.55
2022-08-03T13:27:23.365Z,5.03
2022-08-03T13:30:30.414Z,4.73
2022-08-03T13:33:47.375Z,4.70
2022-08-03T13:37:09.633Z,25.25
2022-08-03T13:40:30.074Z,8.40
2022-08-03T13:43:42.040Z,5.75
2022-08-03T13:47:00.155Z,6.03
2022-08-03T13:50:17.175Z,5.00
2022-08-03T13:53:33.409Z,4.73
2022-08-03T13:56:51.772Z,18.63
2022-08-03T14:00:08.979Z,9.15
2022-08-03T14:03:25.143Z,8.33
2022-08-03T14:06:41.145Z,5.80
2022-08-03T14:09:59.141Z,5.43
2022-08-03T14:13:18.197Z,6.80
2022-08-03T14:16:34.596Z,5.40
2022-08-03T14:19:54.128Z,5.25
2022-08-03T14:23:10.964Z,5.98
2022-08-03T14:26:27.360Z,5.60
2022-08-03T14:29:44.660Z,8.00
2022-08-03T14:33:02.746Z,6.23
2022-08-03T14:36:18.978Z,5.60
2022-08-03T14:42:56.044Z,5.45
2022-08-03T14:46:12.254Z,5.93
2022-08-03T14:50:39.031Z,6.18
2022-08-03T14:52:46.704Z,5.10
2022-08-03T14:56:06.493Z,5.45
2022-08-03T15:02:35.909Z,4.88
2022-08-03T15:05:52.272Z,6.48
2022-08-03T15:09:23.742Z,26.98
2022-08-03T15:12:26.852Z,12.85
2022-08-03T15:15:46.306Z,5.60
2022-08-03T15:19:02.444Z,4.88
2022-08-03T15:22:25.359Z,5.20
2022-08-03T15:26:04.211Z,5.20
2022-08-03T15:28:56.804Z,5.08
2022-08-03T15:32:15.123Z,5.13
2022-08-03T15:35:31.513Z,4.95
2022-08-03T15:38:47.735Z,5.60
2022-08-03T15:42:03.929Z,6.00
2022-08-03T15:45:20.836Z,5.28
2022-08-03T15:48:36.891Z,4.78
2022-08-03T15:51:54.078Z,5.30
2022-08-03T15:55:10.800Z,5.05
2022-08-03T15:59:04.665Z,4.80
2022-08-03T16:01:49.445Z,5.48
2022-08-03T16:05:05.802Z,5.08
2022-08-03T16:08:22.469Z,4.60
2022-08-03T16:11:38.674Z,7.93
2022-08-03T16:14:55.292Z,7.35
2022-08-03T16:18:11.747Z,5.80
2022-08-03T16:21:28.217Z,6.95
2022-08-03T16:24:47.394Z,5.68
2022-08-03T16:28:12.771Z,5.15
2022-08-03T16:34:37.584Z,5.05
2022-08-03T16:37:56.751Z,4.90
2022-08-03T16:41:12.318Z,4.88
2022-08-03T16:44:28.409Z,4.90
2022-08-03T16:47:44.832Z,5.00
2022-08-03T16:51:01.343Z,4.90
2022-08-03T16:54:19.517Z,7.18
2022-08-03T16:57:58.232Z,5.58
2022-08-03T17:00:57.179Z,5.80
2022-08-03T17:04:14.308Z,5.88
2022-08-03T17:07:30.776Z,4.88
2022-08-03T17:10:49.070Z,5.25
2022-08-03T17:14:09.486Z,5.30
2022-08-03T17:17:29.339Z,24.98
2022-08-03T17:20:47.673Z,7.73
2022-08-03T17:24:12.783Z,6.43
2022-08-03T17:28:49.247Z,5.85
2022-08-03T17:31:23.252Z,5.48
2022-08-03T17:34:26.627Z,5.10
2022-08-03T17:37:58.516Z,5.10
2022-08-03T17:41:10.562Z,6.90
2022-08-03T17:44:35.093Z,5.88
2022-08-03T17:47:57.042Z,5.98
2022-08-03T17:51:17.235Z,5.48
2022-08-03T17:55:57.600Z,5.70
2022-08-03T17:58:03.495Z,7.38
2022-08-03T18:02:03.674Z,6.33
2022-08-03T18:05:16.785Z,6.05
2022-08-03T18:08:29.575Z,5.50
2022-08-03T18:11:50.746Z,5.85
2022-08-03T18:15:21.280Z,8.05
2022-08-03T18:18:32.906Z,7.13
2022-08-03T18:22:03.703Z,31.48
2022-08-03T18:25:11.338Z,12.05
2022-08-03T18:28:30.171Z,9.15
2022-08-03T18:32:02.561Z,8.38
2022-08-03T18:35:13.832Z,8.05
2022-08-03T18:38:31.998Z,9.10
2022-08-03T18:41:48.506Z,8.63
2022-08-03T18:45:14.998Z,8.25
2022-08-03T18:48:29.041Z,7.73
2022-08-03T18:51:47.397Z,8.15
2022-08-03T18:55:19.770Z,8.08
2022-08-03T18:58:32.541Z,8.68
2022-08-03T19:01:56.520Z,8.45
2022-08-03T19:05:18.538Z,8.60
2022-08-03T19:08:42.335Z,9.15
2022-08-03T19:15:36.607Z,9.10
2022-08-03T19:18:44.019Z,9.23
2022-08-03T19:22:04.752Z,9.33
2022-08-03T19:25:33.396Z,9.83
2022-08-03T19:28:43.789Z,9.75
2022-08-03T19:35:18.814Z,9.30
2022-08-03T19:38:36.017Z,10.55
2022-08-03T19:41:57.027Z,9.38
2022-08-03T19:45:20.314Z,9.63
2022-08-03T19:48:40.575Z,10.05
2022-08-03T19:52:03.415Z,10.20
2022-08-03T19:55:23.233Z,10.68
2022-08-03T19:58:43.194Z,10.00
2022-08-03T20:01:59.369Z,10.43
2022-08-03T20:05:16.678Z,10.55
2022-08-03T20:08:33.570Z,10.95
2022-08-03T20:11:57.180Z,11.00
2022-08-03T20:15:18.300Z,11.28
2022-08-03T20:18:39.236Z,11.15
2022-08-03T20:21:56.460Z,10.95
2022-08-03T20:25:20.837Z,11.95
2022-08-03T20:28:50.599Z,11.70
2022-08-03T20:31:59.957Z,11.00
2022-08-03T20:35:19.004Z,11.63
2022-08-03T20:38:43.801Z,11.80
2022-08-03T20:41:55.010Z,12.23
2022-08-03T20:45:59.918Z,11.78
2022-08-03T20:48:33.659Z,12.65
2022-08-03T20:51:53.495Z,12.25
2022-08-03T20:55:12.845Z,13.08
2022-08-03T20:58:30.040Z,13.00
2022-08-03T21:01:46.868Z,12.75
2022-08-03T21:05:08.551Z,12.95
2022-08-03T21:08:24.346Z,12.78
2022-08-03T21:11:46.491Z,12.70
2022-08-03T21:13:01.459Z,8.98
2022-08-03T21:15:09.816Z,13.73
2022-08-03T21:18:28.262Z,14.25
2022-08-03T21:21:47.359Z,14.33
2022-08-03T21:25:06.158Z,15.20
2022-08-03T21:31:38.421Z,16.30
2022-08-03T21:34:56.158Z,17.25
2022-08-03T21:38:29.880Z,16.85
2022-08-03T21:41:44.645Z,16.08
2022-08-03T21:45:02.930Z,16.65
2022-08-03T21:48:22.210Z,17.20
2022-08-03T21:51:40.948Z,16.73
2022-08-03T21:55:00.777Z,16.13
2022-08-03T21:58:19.639Z,15.43
2022-08-03T22:01:37.281Z,16.40
2022-08-03T22:04:57.019Z,15.50
2022-08-03T22:08:14.365Z,15.13
2022-08-03T22:11:31.405Z,15.00
2022-08-03T22:14:48.457Z,15.43
2022-08-03T22:21:28.164Z,15.78
2022-08-03T22:24:45.072Z,15.75
2022-08-03T22:28:03.759Z,16.60
2022-08-03T22:31:30.797Z,17.60
2022-08-03T22:34:39.953Z,16.68
2022-08-03T22:38:00.004Z,16.65
2022-08-03T22:41:17.227Z,17.13
2022-08-03T22:44:34.645Z,16.45
2022-08-03T22:47:52.784Z,15.83
2022-08-03T22:51:09.790Z,16.67
2022-08-03T22:54:27.136Z,16.65
2022-08-03T22:57:44.859Z,17.88
2022-08-03T23:01:07.454Z,16.65
2022-08-03T23:04:24.213Z,16.90
2022-08-03T23:07:43.408Z,18.48
2022-08-03T23:11:02.011Z,18.50
2022-08-03T23:14:21.374Z,17.50
2022-08-03T23:17:57.473Z,16.25
2022-08-03T23:21:11.060Z,16.98
2022-08-03T23:24:29.062Z,16.90
2022-08-03T23:27:43.517Z,15.90
2022-08-03T23:31:01.664Z,16.73
2022-08-03T23:34:34.467Z,16.78
2022-08-03T23:38:04.005Z,17.33
2022-08-03T23:41:13.697Z,16.85
2022-08-03T23:44:33.208Z,16.20
2022-08-03T23:47:51.226Z,16.88
2022-08-03T23:51:14.661Z,18.10
2022-08-03T23:54:40.802Z,17.75
2022-08-03T23:58:11.013Z,18.08
